Home > Products > Valid Products > TAF

000
FTUS45 KREV 230500
TAFRNO
TAF
KRNO 230520Z 2306/2406 31005KT P6SM FEW070 SCT200
     FM232100 29010KT P6SM SCT140 BKN200=



000
FTUS45 KREV 230100 AAA
TAFRNO
TAF AMD
KRNO 230141Z 2302/2324 29014G24KT P6SM SCT050
     FM230400 31011KT P6SM FEW050
     FM230600 VRB03KT P6SM SCT140 BKN200
     FM232100 29010KT P6SM SCT140 BKN200=



000
FTUS45 KREV 222300
TAFRNO
TAF
KRNO 222340Z 2300/2324 27015G28KT P6SM VCSH SCT050
     FM230500 35007KT P6SM FEW050 SCT120=



000
FTUS45 KREV 221700
TAFRNO
TAF
KRNO 221740Z 2218/2318 29025G30KT P6SM SCT060 SCT100 WS001/25045KT
     FM222000 31012G25KT P6SM SCT100 SCT150
     FM230700 35006KT P6SM SCT150=



000
FTUS45 KREV 221600 AAC
TAFRNO
TAF AMD
KRNO 221653Z 2217/2312 20015G30KT P6SM SCT060 SCT100 WS005/26045KT
     FM222000 31012G25KT P6SM SCT100 SCT150
     FM230700 35006KT P6SM SCT150=



000
FTUS45 KREV 221600 AAB
TAFRNO
TAF AMD
KRNO 221629Z 2216/2312 21015G30KT P6SM SCT060 SCT100 WS020/26045KT
     FM222000 31012G25KT P6SM SCT100 SCT150
     FM230700 35006KT P6SM SCT150=



000
FTUS45 KREV 221300 AAA
TAFRNO
TAF AMD
KRNO 221342Z 2214/2312 22025G35KT P6SM VCSH SCT040 SCT080
     FM221600 29025G35KT P6SM SCT060 SCT100
     FM230300 31012G25KT P6SM SCT100 SCT150
     FM230700 35006KT P6SM SCT150=



000
FTUS45 KREV 221100
TAFRNO
TAF
KRNO 221120Z 2212/2312 28025G35KT P6SM VCSH SCT040 BKN080
     FM221500 29025G35KT P6SM SCT060 BKN100
     FM230300 31012G25KT P6SM SCT100 SCT150
     FM230700 35006KT P6SM SCT150=



000
FTUS45 KREV 221000 AAC
TAFRNO
TAF AMD
KRNO 221017Z 2210/2306 21023G35KT P6SM SCT060 SCT100
     FM221600 29022G32KT P6SM SCT060 BKN100
     FM230300 31012G25KT P6SM SCT100 SCT150=



000
FTUS45 KREV 220800 AAB
TAFRNO
TAF AMD
KRNO 220854Z 2209/2306 23035G50KT P6SM SCT080 BKN120
     FM221300 24025G40KT P6SM VCSH SCT080 BKN120
     FM221600 28022G32KT P6SM SCT050
     FM230300 31012G25KT P6SM FEW050 SCT100=



000
FTUS45 KREV 220800 AAA
TAFRNO
TAF AMD
KRNO 220804Z 2208/2306 24025G40KT P6SM VCSH SCT080 BKN120
     FM221600 28022G32KT P6SM SCT050
     FM230300 31012G25KT P6SM FEW050 SCT100=



000
FTUS45 KREV 220500
TAFRNO
TAF
KRNO 220520Z 2206/2306 25010G18KT P6SM SCT100 BKN140
     FM221100 23014G24KT P6SM VCSH BKN060 BKN100
     FM221600 28022G32KT P6SM SCT050
     FM230300 31012G25KT P6SM FEW050 SCT100=



000
FTUS45 KREV 220000 AAA
TAFRNO
TAF AMD
KRNO 220040Z 2201/2224 21020G30KT P6SM SCT090 BKN120 OVC200
     FM220400 24010G18KT P6SM BKN100 OVC180
     FM221000 28012G25KT P6SM VCSH SCT060 BKN100
     FM221700 27022G32KT P6SM SCT100=



000
FTUS45 KREV 212300
TAFRNO
TAF
KRNO 212320Z 2200/2224 24020G32KT P6SM SCT090 BKN120 OVC200
     FM220400 24010G18KT P6SM BKN100 OVC180
     FM221000 28012G25KT P6SM VCSH SCT060 BKN100
     FM221700 27022G32KT P6SM SCT100=



000
FTUS45 KREV 211700
TAFRNO
TAF
KRNO 211739Z 2118/2218 21009KT P6SM FEW120 BKN180
     FM212100 23020G35KT P6SM SCT100 BKN150
     FM220400 24010G18KT P6SM BKN100 BKN180
     FM221000 28012G25KT P6SM VCSH SCT060 BKN100=



000
FTUS45 KREV 211100
TAFRNO
TAF
KRNO 211120Z 2112/2212 VRB03KT P6SM SCT180
     FM211800 21009KT P6SM SCT180
     FM212100 23020G35KT P6SM SCT100 BKN150
     FM220400 24010G18KT P6SM BKN100 BKN180
     FM221000 28012G25KT P6SM VCSH SCT060 BKN100=



000
FTUS45 KREV 210500
TAFRNO
TAF
KRNO 210520Z 2106/2206 VRB03KT P6SM SCT200
     FM211900 22018G27KT P6SM BKN120 OVC180
     FM220400 24010G18KT P6SM BKN100 BKN180=



000
FTUS45 KREV 202300
TAFRNO
TAF
KRNO 202331Z 2100/2124 34008KT P6SM FEW100
     FM210400 VRB03KT P6SM SCT200
     FM211900 21018G27KT P6SM BKN120 OVC180=



000
FTUS45 KREV 201700
TAFRNO
TAF
KRNO 201731Z 2018/2118 04007KT P6SM BKN220
     FM202300 34011KT P6SM SCT220
     FM210400 VRB03KT P6SM BKN200=



000
FTUS45 KREV 201100
TAFRNO
TAF
KRNO 201120Z 2012/2112 VRB03KT P6SM SCT200
     FM201900 02007KT P6SM FEW200
     FM210400 VRB03KT P6SM SKC=



    US Dept of Commerce
    National Oceanic and Atmospheric Administration
    National Weather Service
    1325 East West Highway
    Silver Spring, MD 20910
    Page Author: NWS Internet Services Team
Disclaimer
Information Quality
Credits
Glossary
Privacy Policy
Freedom of Information Act (FOIA)
About Us
Career Opportunities